createdAt,value
2023-05-19T00:01:56.213Z,8.57
2023-05-19T00:04:28.700Z,9.43
2023-05-19T00:07:02.971Z,10.67
2023-05-19T00:09:35.452Z,8.83
2023-05-19T00:12:08.362Z,9.07
2023-05-19T00:14:40.754Z,8.60
2023-05-19T00:17:13.225Z,8.60
2023-05-19T00:19:45.349Z,9.97
2023-05-19T00:22:17.407Z,10.97
2023-05-19T00:24:49.368Z,8.37
2023-05-19T00:27:21.326Z,9.07
2023-05-19T00:29:53.290Z,10.27
2023-05-19T00:32:25.316Z,12.10
2023-05-19T00:34:57.619Z,9.20
2023-05-19T00:37:29.646Z,10.80
2023-05-19T00:40:01.619Z,10.20
2023-05-19T00:42:33.964Z,9.43
2023-05-19T00:45:07.007Z,11.37
2023-05-19T00:47:39.952Z,10.30
2023-05-19T00:50:12.004Z,10.87
2023-05-19T00:52:44.186Z,9.43
2023-05-19T00:55:16.522Z,8.80
2023-05-19T00:57:50.404Z,10.73
2023-05-19T01:00:22.818Z,12.10
2023-05-19T01:02:56.181Z,7.90
2023-05-19T01:05:28.229Z,9.57
2023-05-19T01:08:00.371Z,10.20
2023-05-19T01:10:32.503Z,8.60
2023-05-19T01:13:06.616Z,8.93
2023-05-19T01:16:02.279Z,10.23
2023-05-19T01:19:10.895Z,10.20
2023-05-19T01:22:01.299Z,10.43
2023-05-19T01:25:11.330Z,9.60
2023-05-19T01:28:10.531Z,10.07
2023-05-19T01:30:45.043Z,11.60
2023-05-19T01:33:18.960Z,8.73
2023-05-19T01:35:53.465Z,14.27
2023-05-19T01:38:28.568Z,12.70
2023-05-19T01:41:04.092Z,10.00
2023-05-19T01:43:36.465Z,7.77
2023-05-19T01:46:09.193Z,9.73
2023-05-19T01:48:44.774Z,10.83
2023-05-19T01:51:17.112Z,8.77
2023-05-19T01:53:49.181Z,9.27
2023-05-19T01:56:53.765Z,10.03
2023-05-19T02:00:07.890Z,8.23
2023-05-19T02:03:18.045Z,10.23
2023-05-19T02:05:58.908Z,9.43
2023-05-19T02:08:42.840Z,9.27
2023-05-19T02:11:44.654Z,9.60
2023-05-19T02:14:29.933Z,9.57
2023-05-19T02:17:05.338Z,8.93
2023-05-19T02:19:40.162Z,10.23
2023-05-19T02:22:12.226Z,9.70
2023-05-19T02:24:46.599Z,8.03
2023-05-19T02:27:19.064Z,10.67
2023-05-19T02:29:51.011Z,7.97
2023-05-19T02:32:23.117Z,8.47
2023-05-19T02:34:56.544Z,8.97
2023-05-19T02:37:29.332Z,8.63
2023-05-19T02:40:01.324Z,8.33
2023-05-19T02:42:33.323Z,7.50
2023-05-19T02:45:06.053Z,8.17
2023-05-19T02:47:38.439Z,9.93
2023-05-19T02:50:10.964Z,10.77
2023-05-19T02:52:42.915Z,8.30
2023-05-19T02:55:17.184Z,10.03
2023-05-19T02:57:49.292Z,8.63
2023-05-19T03:00:21.457Z,8.43
2023-05-19T03:02:54.280Z,7.60
2023-05-19T03:05:26.296Z,10.27
2023-05-19T03:07:58.316Z,8.47
2023-05-19T03:10:31.135Z,9.47
2023-05-19T03:13:03.262Z,8.97
2023-05-19T03:15:36.695Z,11.23
2023-05-19T03:18:08.805Z,8.13
2023-05-19T03:20:42.438Z,7.77
2023-05-19T03:23:14.433Z,10.53
2023-05-19T03:25:46.543Z,7.93
2023-05-19T03:28:18.582Z,8.40
2023-05-19T03:30:50.946Z,7.83
2023-05-19T03:33:23.996Z,8.40
2023-05-19T03:35:57.781Z,10.60
2023-05-19T03:38:29.763Z,8.30
2023-05-19T03:41:01.740Z,11.20
2023-05-19T03:43:33.732Z,8.10
2023-05-19T03:46:06.095Z,9.87
2023-05-19T03:48:38.087Z,11.03
2023-05-19T03:51:10.029Z,10.87
2023-05-19T03:53:41.976Z,8.50
2023-05-19T03:56:14.106Z,8.17
2023-05-19T03:58:47.113Z,8.17
2023-05-19T04:01:19.258Z,10.67
2023-05-19T04:03:51.214Z,10.90
2023-05-19T04:06:23.494Z,9.50
2023-05-19T04:08:55.805Z,9.50
2023-05-19T04:11:27.764Z,10.27
2023-05-19T04:13:59.846Z,10.40
2023-05-19T04:16:32.263Z,15.90
2023-05-19T04:19:04.373Z,12.10
2023-05-19T04:21:36.509Z,12.80
2023-05-19T04:24:08.725Z,8.93
2023-05-19T04:26:45.776Z,12.13
2023-05-19T04:29:18.203Z,9.90
2023-05-19T04:31:50.499Z,10.07
2023-05-19T04:34:23.010Z,10.83
2023-05-19T04:36:55.565Z,11.23
2023-05-19T04:39:27.506Z,11.57
2023-05-19T04:42:00.032Z,9.43
2023-05-19T04:44:32.046Z,10.03
2023-05-19T04:47:06.446Z,8.60
2023-05-19T04:49:42.300Z,10.53
2023-05-19T04:52:14.262Z,8.70
2023-05-19T04:54:46.236Z,12.27
2023-05-19T04:57:18.244Z,9.30
2023-05-19T04:59:50.232Z,9.23
2023-05-19T05:02:22.365Z,10.57
2023-05-19T05:04:54.656Z,11.13
2023-05-19T05:07:26.749Z,10.30
2023-05-19T05:09:58.750Z,9.80
2023-05-19T05:12:32.006Z,10.40
2023-05-19T05:15:06.944Z,12.13
2023-05-19T05:17:39.328Z,9.63
2023-05-19T05:20:12.764Z,9.63
2023-05-19T05:22:45.206Z,10.83
2023-05-19T05:25:18.404Z,9.03
2023-05-19T05:27:50.797Z,11.10
2023-05-19T05:30:22.721Z,12.60
2023-05-19T05:32:54.749Z,8.93
2023-05-19T05:35:26.777Z,8.57
2023-05-19T05:37:58.821Z,11.87
2023-05-19T05:40:30.935Z,10.50
2023-05-19T05:43:02.905Z,9.00
2023-05-19T05:45:35.020Z,11.57
2023-05-19T05:48:07.891Z,11.17
2023-05-19T05:50:41.262Z,11.27
2023-05-19T05:53:19.866Z,10.50
2023-05-19T05:55:53.605Z,12.20
2023-05-19T05:58:25.928Z,8.13
2023-05-19T06:00:57.920Z,10.27
2023-05-19T06:03:32.026Z,11.23
2023-05-19T06:06:04.671Z,9.57
2023-05-19T06:08:36.752Z,9.70
2023-05-19T06:11:09.407Z,8.03
2023-05-19T06:13:41.617Z,12.43
2023-05-19T06:16:13.637Z,9.57
2023-05-19T06:18:45.678Z,9.30
2023-05-19T06:21:17.741Z,9.27
2023-05-19T06:23:49.733Z,9.17
2023-05-19T06:26:22.215Z,9.50
2023-05-19T06:28:54.128Z,7.80
2023-05-19T06:31:26.646Z,9.67
2023-05-19T06:33:58.922Z,8.73
2023-05-19T06:36:31.396Z,9.77
2023-05-19T06:39:03.694Z,10.53
2023-05-19T06:41:35.644Z,7.67
2023-05-19T06:44:09.146Z,7.60
2023-05-19T06:46:41.176Z,10.37
2023-05-19T06:49:13.317Z,8.97
2023-05-19T06:51:45.409Z,7.37
2023-05-19T06:54:17.396Z,8.27
2023-05-19T06:56:49.419Z,7.30
2023-05-19T06:59:22.742Z,9.37
2023-05-19T07:01:54.746Z,10.67
2023-05-19T07:04:27.317Z,8.37
2023-05-19T07:06:59.442Z,7.03
2023-05-19T07:09:31.521Z,9.90
2023-05-19T07:12:03.676Z,11.20
2023-05-19T07:14:36.539Z,9.40
2023-05-19T07:17:08.652Z,8.03
2023-05-19T07:19:40.795Z,8.53
2023-05-19T07:22:12.772Z,8.63
2023-05-19T07:24:44.758Z,7.53
2023-05-19T07:27:16.688Z,7.90
2023-05-19T07:29:48.588Z,8.00
2023-05-19T07:32:20.645Z,7.80
2023-05-19T07:34:52.944Z,7.87
2023-05-19T07:37:25.037Z,7.07
2023-05-19T07:39:57.067Z,9.77
2023-05-19T07:42:29.063Z,10.20
2023-05-19T07:45:01.318Z,7.67
2023-05-19T07:47:33.444Z,8.80
2023-05-19T07:50:06.241Z,7.13
2023-05-19T07:52:38.238Z,6.60
2023-05-19T07:55:11.636Z,13.53
2023-05-19T07:57:43.626Z,8.33
2023-05-19T08:00:16.981Z,7.57
2023-05-19T08:02:49.073Z,5.83
2023-05-19T08:05:21.208Z,7.50
2023-05-19T08:07:53.208Z,6.77
2023-05-19T08:10:25.249Z,6.77
2023-05-19T08:12:57.171Z,10.10
2023-05-19T08:15:29.191Z,8.60
2023-05-19T08:18:01.753Z,7.83
2023-05-19T08:20:34.302Z,8.27
2023-05-19T08:23:06.554Z,9.70
2023-05-19T08:25:38.500Z,10.07
2023-05-19T08:28:10.791Z,7.00
2023-05-19T08:30:42.932Z,7.00
2023-05-19T08:33:15.014Z,6.10
2023-05-19T08:35:48.052Z,7.23
2023-05-19T08:38:20.120Z,7.23
2023-05-19T08:40:52.534Z,6.93
2023-05-19T08:43:24.578Z,9.80
2023-05-19T08:45:59.461Z,8.80
2023-05-19T08:48:32.632Z,7.03
2023-05-19T08:51:22.364Z,6.80
2023-05-19T08:54:04.500Z,5.60
2023-05-19T08:56:38.070Z,5.87
2023-05-19T08:59:11.371Z,5.07
2023-05-19T09:01:49.001Z,7.37
2023-05-19T09:04:21.207Z,8.27
2023-05-19T09:06:53.391Z,5.73
2023-05-19T09:09:25.683Z,7.43
2023-05-19T09:11:58.353Z,4.87
2023-05-19T09:14:30.874Z,4.97
2023-05-19T09:17:03.404Z,6.37
2023-05-19T09:19:35.699Z,6.17
2023-05-19T09:22:07.749Z,8.20
2023-05-19T09:24:40.716Z,4.60
2023-05-19T09:27:21.119Z,5.03
2023-05-19T09:29:53.117Z,4.37
2023-05-19T09:32:27.228Z,6.13
2023-05-19T09:34:59.417Z,8.30
2023-05-19T09:37:32.263Z,5.93
2023-05-19T09:40:05.435Z,3.60
2023-05-19T09:42:39.321Z,4.53
2023-05-19T09:45:11.924Z,6.23
2023-05-19T09:47:44.057Z,4.30
2023-05-19T09:50:17.052Z,4.33
2023-05-19T09:52:50.397Z,5.53
2023-05-19T09:55:28.752Z,7.50
2023-05-19T09:58:04.073Z,4.70
2023-05-19T10:00:37.982Z,4.77
2023-05-19T10:03:10.440Z,6.00
2023-05-19T10:05:43.914Z,5.03
2023-05-19T10:08:17.931Z,8.40
2023-05-19T10:10:50.183Z,5.97
2023-05-19T10:13:24.148Z,4.37
2023-05-19T10:15:59.768Z,4.67
2023-05-19T10:18:33.721Z,5.30
2023-05-19T10:21:07.342Z,5.90
2023-05-19T10:23:39.472Z,4.57
2023-05-19T10:26:12.810Z,6.33
2023-05-19T10:28:46.047Z,5.57
2023-05-19T10:31:23.207Z,4.77
2023-05-19T10:34:27.932Z,5.63
2023-05-19T10:37:27.090Z,5.00
2023-05-19T10:39:59.900Z,5.93
2023-05-19T10:42:45.361Z,4.37
2023-05-19T10:45:22.709Z,5.80
2023-05-19T10:47:55.396Z,5.70
2023-05-19T10:50:29.896Z,4.77
2023-05-19T10:53:03.082Z,6.40
2023-05-19T10:56:03.675Z,4.93
2023-05-19T10:58:44.624Z,5.00
2023-05-19T11:01:22.183Z,4.13
2023-05-19T11:03:57.508Z,3.90
2023-05-19T11:06:32.469Z,3.53
2023-05-19T11:09:14.579Z,5.57
2023-05-19T11:11:52.197Z,3.73
2023-05-19T11:14:27.384Z,4.83
2023-05-19T11:17:00.931Z,3.53
2023-05-19T11:19:36.174Z,3.17
2023-05-19T11:22:11.110Z,4.60
2023-05-19T11:24:50.638Z,3.70
2023-05-19T11:27:34.418Z,4.87
2023-05-19T11:30:07.590Z,6.93
2023-05-19T11:32:42.646Z,4.97
2023-05-19T11:35:16.737Z,4.90
2023-05-19T11:37:52.347Z,5.17
2023-05-19T11:40:25.364Z,4.13
2023-05-19T11:42:58.057Z,7.37
2023-05-19T11:45:33.132Z,4.63
2023-05-19T11:48:07.076Z,5.57
2023-05-19T11:50:46.841Z,5.63
2023-05-19T11:53:19.936Z,3.07
2023-05-19T11:55:52.397Z,6.60
2023-05-19T11:58:27.965Z,5.10
2023-05-19T12:01:04.533Z,5.03
2023-05-19T12:03:36.882Z,6.90
2023-05-19T12:06:11.010Z,6.43
2023-05-19T12:08:43.032Z,16.13
2023-05-19T12:11:16.989Z,26.73
2023-05-19T12:13:54.539Z,8.80
2023-05-19T12:16:36.349Z,19.23
2023-05-19T12:19:09.683Z,4.20
2023-05-19T12:21:42.162Z,6.33
2023-05-19T12:24:14.506Z,7.93
2023-05-19T12:26:47.212Z,24.20
2023-05-19T12:29:19.226Z,4.93
2023-05-19T12:31:51.295Z,5.20
2023-05-19T12:34:23.534Z,7.03
2023-05-19T12:36:55.762Z,6.40
2023-05-19T12:39:28.892Z,16.20
2023-05-19T12:42:11.028Z,3.93
2023-05-19T12:44:51.590Z,3.23
2023-05-19T12:47:30.858Z,5.57
2023-05-19T12:50:09.311Z,3.97
2023-05-19T12:52:48.061Z,3.93
2023-05-19T12:55:22.213Z,5.93
2023-05-19T12:57:58.186Z,5.10
2023-05-19T13:00:32.541Z,5.87
2023-05-19T13:03:06.710Z,3.87
2023-05-19T13:05:43.746Z,3.40
2023-05-19T13:08:20.304Z,5.00
2023-05-19T13:10:52.466Z,5.20
2023-05-19T13:13:24.584Z,5.57
2023-05-19T13:15:56.643Z,4.43
2023-05-19T13:18:32.067Z,4.23
2023-05-19T13:21:04.428Z,3.70
2023-05-19T13:23:36.684Z,5.70
2023-05-19T13:26:09.120Z,3.83
2023-05-19T13:28:41.090Z,9.63
2023-05-19T13:31:13.105Z,5.73
2023-05-19T13:33:45.054Z,4.90
2023-05-19T13:36:17.051Z,3.67
2023-05-19T13:38:49.007Z,6.27
2023-05-19T13:41:26.232Z,4.90
2023-05-19T13:44:01.281Z,4.00
2023-05-19T13:46:44.805Z,5.97
2023-05-19T13:49:18.490Z,5.27
2023-05-19T13:51:50.516Z,4.53
2023-05-19T13:54:22.597Z,7.50
2023-05-19T13:56:54.696Z,4.20
2023-05-19T13:59:26.802Z,6.70
2023-05-19T14:01:58.977Z,4.50
2023-05-19T14:04:31.033Z,4.40
2023-05-19T14:07:03.054Z,4.93
2023-05-19T14:09:35.089Z,4.60
2023-05-19T14:12:07.409Z,4.50
2023-05-19T14:14:39.418Z,4.37
2023-05-19T14:17:11.989Z,5.23
2023-05-19T14:19:44.010Z,3.93
2023-05-19T14:22:15.985Z,4.97
2023-05-19T14:24:47.970Z,3.93
2023-05-19T14:27:20.018Z,4.97
2023-05-19T14:29:52.002Z,4.53
2023-05-19T14:32:24.323Z,4.27
2023-05-19T14:34:56.314Z,5.13
2023-05-19T14:37:29.050Z,4.83
2023-05-19T14:40:01.256Z,5.87
2023-05-19T14:42:33.242Z,5.03
2023-05-19T14:45:05.858Z,5.47
2023-05-19T14:47:37.986Z,6.10
2023-05-19T14:50:10.158Z,6.07
2023-05-19T14:52:42.118Z,5.43
2023-05-19T14:55:14.083Z,5.03
2023-05-19T14:57:46.432Z,6.43
2023-05-19T15:00:18.938Z,5.77
2023-05-19T15:02:51.059Z,6.20
2023-05-19T15:05:24.303Z,5.43
2023-05-19T15:07:56.539Z,6.07
2023-05-19T15:10:28.624Z,15.07
2023-05-19T15:13:01.731Z,14.17
2023-05-19T15:15:33.773Z,5.63
2023-05-19T15:18:05.984Z,8.47
2023-05-19T15:20:38.070Z,5.75
2023-05-19T15:23:10.083Z,5.47
2023-05-19T15:25:42.256Z,4.30
2023-05-19T15:28:14.506Z,6.03
2023-05-19T15:30:46.644Z,6.03
2023-05-19T15:33:18.875Z,4.90
2023-05-19T15:35:52.272Z,5.57
2023-05-19T15:38:24.341Z,4.60
2023-05-19T15:40:56.332Z,5.77
2023-05-19T15:43:28.265Z,4.07
2023-05-19T15:46:00.420Z,6.63
2023-05-19T15:48:32.650Z,4.37
2023-05-19T15:51:04.971Z,4.50
2023-05-19T15:53:37.950Z,4.57
2023-05-19T15:56:09.956Z,3.77
2023-05-19T15:58:41.960Z,4.10
2023-05-19T16:01:15.572Z,5.73
2023-05-19T16:03:48.041Z,5.03
2023-05-19T16:06:20.173Z,4.87
2023-05-19T16:08:52.215Z,6.50
2023-05-19T16:11:24.357Z,5.00
2023-05-19T16:13:56.319Z,7.10
2023-05-19T16:16:28.350Z,5.93
2023-05-19T16:19:00.370Z,6.50
2023-05-19T16:21:32.603Z,4.17
2023-05-19T16:24:04.911Z,5.37
2023-05-19T16:26:36.864Z,4.60
2023-05-19T16:29:08.854Z,5.40
2023-05-19T16:31:41.045Z,7.17
2023-05-19T16:34:13.063Z,6.23
2023-05-19T16:36:44.971Z,4.43
2023-05-19T16:39:16.921Z,6.03
2023-05-19T16:41:48.857Z,7.93
2023-05-19T16:44:20.918Z,6.50
2023-05-19T16:46:52.930Z,3.83
2023-05-19T16:49:24.899Z,4.57
2023-05-19T16:51:56.888Z,3.70
2023-05-19T16:54:29.216Z,6.53
2023-05-19T16:57:02.361Z,5.40
2023-05-19T16:59:34.339Z,3.73
2023-05-19T17:02:07.448Z,4.43
2023-05-19T17:04:39.406Z,4.23
2023-05-19T17:07:17.640Z,4.53
2023-05-19T17:09:49.736Z,4.57
2023-05-19T17:12:21.765Z,5.73
2023-05-19T17:14:53.814Z,4.53
2023-05-19T17:17:25.869Z,4.97
2023-05-19T17:19:57.872Z,4.27
2023-05-19T17:22:30.477Z,4.67
2023-05-19T17:25:02.451Z,5.87
2023-05-19T17:27:34.399Z,4.33
2023-05-19T17:30:07.503Z,4.97
2023-05-19T17:32:39.797Z,5.90
2023-05-19T17:35:11.929Z,5.20
2023-05-19T17:37:43.904Z,5.37
2023-05-19T17:40:16.043Z,4.60
2023-05-19T17:42:48.058Z,4.63
2023-05-19T17:45:20.259Z,5.03
2023-05-19T17:47:52.389Z,6.17
2023-05-19T17:50:24.466Z,5.83
2023-05-19T17:52:56.912Z,2.90
2023-05-19T17:55:31.016Z,2.60
2023-05-19T17:58:03.373Z,5.67
2023-05-19T18:00:35.988Z,4.47
2023-05-19T18:03:08.780Z,4.30
2023-05-19T18:05:43.326Z,5.73
2023-05-19T18:08:16.649Z,4.97
2023-05-19T18:10:51.626Z,6.17
2023-05-19T18:13:23.896Z,4.17
2023-05-19T18:15:57.082Z,4.83
2023-05-19T18:18:29.084Z,4.77
2023-05-19T18:21:01.025Z,5.63
2023-05-19T18:23:33.260Z,5.20
2023-05-19T18:26:05.399Z,3.30
2023-05-19T18:28:37.458Z,4.30
2023-05-19T18:31:15.665Z,4.03
2023-05-19T18:33:48.156Z,4.07
2023-05-19T18:36:20.335Z,5.27
2023-05-19T18:38:52.541Z,7.87
2023-05-19T18:41:25.175Z,4.40
2023-05-19T18:43:57.313Z,5.80
2023-05-19T18:46:30.066Z,5.83
2023-05-19T18:49:03.731Z,5.53
2023-05-19T18:51:36.143Z,3.97
2023-05-19T18:54:08.422Z,3.67
2023-05-19T18:56:41.372Z,5.17
2023-05-19T18:59:13.513Z,4.00
2023-05-19T19:01:45.840Z,5.53
2023-05-19T19:04:18.271Z,5.00
2023-05-19T19:06:51.259Z,3.03
2023-05-19T19:09:23.336Z,6.10
2023-05-19T19:11:55.411Z,3.50
2023-05-19T19:14:27.381Z,4.13
2023-05-19T19:16:59.351Z,4.57
2023-05-19T19:19:31.461Z,3.80
2023-05-19T19:22:03.574Z,2.80
2023-05-19T19:24:35.958Z,4.53
2023-05-19T19:27:07.936Z,4.07
2023-05-19T19:29:39.905Z,4.07
2023-05-19T19:32:11.889Z,3.70
2023-05-19T19:34:43.831Z,3.63
2023-05-19T19:37:16.598Z,5.67
2023-05-19T19:39:48.643Z,4.17
2023-05-19T19:42:20.590Z,4.20
2023-05-19T19:44:56.069Z,4.27
2023-05-19T19:47:29.293Z,5.03
2023-05-19T19:50:03.581Z,4.83
2023-05-19T19:52:35.644Z,5.80
2023-05-19T19:55:08.636Z,3.33
2023-05-19T19:57:40.756Z,5.07
2023-05-19T20:00:13.538Z,7.10
2023-05-19T20:03:02.989Z,6.07
2023-05-19T20:05:38.415Z,6.23
2023-05-19T20:08:10.702Z,3.30
2023-05-19T20:10:42.674Z,5.00
2023-05-19T20:13:19.072Z,5.03
2023-05-19T20:15:51.234Z,5.97
2023-05-19T20:18:24.773Z,13.93
2023-05-19T20:20:57.059Z,10.13
2023-05-19T20:23:29.023Z,10.50
2023-05-19T20:26:11.744Z,7.40
2023-05-19T20:28:45.361Z,5.30
2023-05-19T20:31:17.310Z,6.63
2023-05-19T20:33:50.029Z,5.53
2023-05-19T20:36:22.011Z,6.37
2023-05-19T20:38:53.955Z,6.60
2023-05-19T20:41:25.880Z,4.53
2023-05-19T20:43:58.073Z,4.20
2023-05-19T20:46:30.227Z,3.07
2023-05-19T20:49:04.052Z,4.37
2023-05-19T20:51:36.086Z,3.70
2023-05-19T20:54:08.204Z,5.70
2023-05-19T20:56:40.355Z,4.23
2023-05-19T20:59:12.844Z,4.40
2023-05-19T21:01:45.987Z,4.20
2023-05-19T21:04:17.990Z,3.87
2023-05-19T21:06:50.068Z,3.53
2023-05-19T21:09:22.490Z,4.13
2023-05-19T21:11:54.471Z,5.63
2023-05-19T21:14:26.552Z,3.97
2023-05-19T21:16:58.694Z,4.80
2023-05-19T21:19:30.837Z,3.63
2023-05-19T21:22:03.038Z,5.63
2023-05-19T21:24:35.041Z,4.33
2023-05-19T21:27:06.976Z,4.07
2023-05-19T21:29:38.947Z,3.97
2023-05-19T21:32:10.910Z,4.63
2023-05-19T21:34:42.921Z,4.90
2023-05-19T21:37:17.111Z,7.27
2023-05-19T21:39:49.260Z,4.57
2023-05-19T21:42:21.265Z,5.33
2023-05-19T21:44:53.770Z,3.60
2023-05-19T21:47:25.782Z,4.13
2023-05-19T21:49:57.765Z,4.90
2023-05-19T21:52:31.327Z,4.10
2023-05-19T21:55:03.531Z,6.10
2023-05-19T21:57:35.616Z,5.63
2023-05-19T22:00:09.137Z,4.97
2023-05-19T22:02:41.196Z,3.30
2023-05-19T22:05:13.285Z,3.50
2023-05-19T22:07:46.301Z,3.67
2023-05-19T22:10:18.340Z,4.07
2023-05-19T22:12:50.386Z,4.00
2023-05-19T22:15:22.455Z,3.50
2023-05-19T22:17:54.479Z,5.57
2023-05-19T22:20:26.475Z,4.27
2023-05-19T22:22:59.489Z,5.57
2023-05-19T22:25:32.157Z,2.60
2023-05-19T22:28:05.658Z,4.57
2023-05-19T22:30:40.983Z,2.73
2023-05-19T22:33:13.520Z,3.13
2023-05-19T22:35:46.025Z,3.30
2023-05-19T22:38:18.022Z,4.70
2023-05-19T22:40:50.057Z,5.60
2023-05-19T22:43:21.973Z,4.73
2023-05-19T22:45:53.957Z,3.70
2023-05-19T22:48:26.109Z,2.87
2023-05-19T22:50:58.256Z,5.43
2023-05-19T22:53:30.216Z,3.73
2023-05-19T22:56:02.180Z,3.33
2023-05-19T22:58:34.232Z,4.43
2023-05-19T23:01:06.313Z,4.83
2023-05-19T23:03:38.371Z,2.63
2023-05-19T23:06:10.634Z,4.07
2023-05-19T23:08:43.498Z,3.70
2023-05-19T23:11:16.717Z,3.20
2023-05-19T23:13:48.686Z,3.17
2023-05-19T23:16:20.739Z,3.13
2023-05-19T23:18:52.771Z,3.20
2023-05-19T23:21:24.870Z,3.70
2023-05-19T23:23:56.898Z,3.37
2023-05-19T23:26:28.860Z,3.00
2023-05-19T23:29:00.924Z,4.30
2023-05-19T23:31:35.058Z,6.00
2023-05-19T23:34:08.913Z,4.63
2023-05-19T23:36:41.103Z,4.67
2023-05-19T23:39:13.069Z,6.57
2023-05-19T23:41:45.045Z,5.10
2023-05-19T23:44:18.533Z,5.10
2023-05-19T23:46:50.619Z,4.33
2023-05-19T23:49:22.670Z,4.13
2023-05-19T23:51:54.632Z,3.87
2023-05-19T23:54:26.790Z,6.37
2023-05-19T23:56:59.401Z,7.30
2023-05-19T23:59:31.285Z,4.60
